sensor_id;sensor_type;location;lat;lon;timestamp;pressure;altitude;pressure_sealevel;temperature;humidity
6435;BME280;3250;42.694;23.278;2023-01-19T00:01:14;93650.78;;;15.47;49.09
6435;BME280;3250;42.694;23.278;2023-01-19T00:03:40;93646.78;;;15.40;49.58
6435;BME280;3250;42.694;23.278;2023-01-19T00:06:06;93589.81;;;15.37;49.67
6435;BME280;3250;42.694;23.278;2023-01-19T00:08:32;93650.00;;;15.37;49.26
6435;BME280;3250;42.694;23.278;2023-01-19T00:10:58;93660.63;;;15.37;49.74
6435;BME280;3250;42.694;23.278;2023-01-19T00:13:24;93633.06;;;15.23;49.78
6435;BME280;3250;42.694;23.278;2023-01-19T00:15:49;93650.28;;;15.35;50.24
6435;BME280;3250;42.694;23.278;2023-01-19T00:18:14;93676.78;;;15.35;50.37
6435;BME280;3250;42.694;23.278;2023-01-19T00:20:40;93668.06;;;15.25;50.61
6435;BME280;3250;42.694;23.278;2023-01-19T00:23:05;93650.28;;;15.25;50.91
6435;BME280;3250;42.694;23.278;2023-01-19T00:25:32;93668.63;;;15.22;50.54
6435;BME280;3250;42.694;23.278;2023-01-19T00:27:58;93672.84;;;15.18;51.00
6435;BME280;3250;42.694;23.278;2023-01-19T00:30:24;93655.34;;;15.22;50.41
6435;BME280;3250;42.694;23.278;2023-01-19T00:32:49;93666.22;;;15.20;50.59
6435;BME280;3250;42.694;23.278;2023-01-19T00:35:15;93666.22;;;15.20;49.94
6435;BME280;3250;42.694;23.278;2023-01-19T00:37:40;93647.91;;;15.29;50.33
6435;BME280;3250;42.694;23.278;2023-01-19T00:40:11;93690.59;;;15.22;50.32
6435;BME280;3250;42.694;23.278;2023-01-19T00:42:38;93663.28;;;15.27;50.38
6435;BME280;3250;42.694;23.278;2023-01-19T00:45:13;93670.47;;;15.16;50.45
6435;BME280;3250;42.694;23.278;2023-01-19T00:47:41;93667.28;;;15.19;50.03
6435;BME280;3250;42.694;23.278;2023-01-19T00:50:07;93683.72;;;15.06;50.68
6435;BME280;3250;42.694;23.278;2023-01-19T00:52:35;93684.53;;;15.06;50.79
6435;BME280;3250;42.694;23.278;2023-01-19T00:55:01;93673.38;;;15.15;50.39
6435;BME280;3250;42.694;23.278;2023-01-19T00:57:26;93671.53;;;15.05;50.39
6435;BME280;3250;42.694;23.278;2023-01-19T00:59:53;93674.19;;;15.05;50.43
6435;BME280;3250;42.694;23.278;2023-01-19T01:02:19;93652.44;;;15.08;50.36
6435;BME280;3250;42.694;23.278;2023-01-19T01:04:44;93683.97;;;15.15;49.94
6435;BME280;3250;42.694;23.278;2023-01-19T01:07:10;93668.34;;;15.18;50.17
6435;BME280;3250;42.694;23.278;2023-01-19T01:09:35;93676.56;;;15.06;50.23
6435;BME280;3250;42.694;23.278;2023-01-19T01:12:01;93677.09;;;15.19;49.41
6435;BME280;3250;42.694;23.278;2023-01-19T01:14:26;93663.56;;;15.20;49.63
6435;BME280;3250;42.694;23.278;2023-01-19T01:16:51;93663.59;;;15.10;49.70
6435;BME280;3250;42.694;23.278;2023-01-19T01:19:17;93653.28;;;15.03;49.70
6435;BME280;3250;42.694;23.278;2023-01-19T01:21:43;93655.13;;;14.98;49.94
6435;BME280;3250;42.694;23.278;2023-01-19T01:24:09;93658.53;;;15.08;49.94
6435;BME280;3250;42.694;23.278;2023-01-19T01:26:34;93624.88;;;15.09;49.49
6435;BME280;3250;42.694;23.278;2023-01-19T01:29:00;93657.75;;;15.18;49.34
6435;BME280;3250;42.694;23.278;2023-01-19T01:31:25;93621.97;;;15.10;49.84
6435;BME280;3250;42.694;23.278;2023-01-19T01:33:51;93672.84;;;15.07;50.10
6435;BME280;3250;42.694;23.278;2023-01-19T01:36:16;93668.13;;;15.04;49.58
6435;BME280;3250;42.694;23.278;2023-01-19T01:38:43;93639.47;;;15.12;49.14
6435;BME280;3250;42.694;23.278;2023-01-19T01:41:09;93667.00;;;15.16;48.99
6435;BME280;3250;42.694;23.278;2023-01-19T01:46:09;93664.06;;;15.22;49.17
6435;BME280;3250;42.694;23.278;2023-01-19T01:48:36;93661.19;;;15.19;48.70
6435;BME280;3250;42.694;23.278;2023-01-19T01:51:06;93678.41;;;15.21;48.59
6435;BME280;3250;42.694;23.278;2023-01-19T01:53:53;93660.91;;;15.20;48.80
6435;BME280;3250;42.694;23.278;2023-01-19T01:56:25;93652.94;;;15.30;48.75
6435;BME280;3250;42.694;23.278;2023-01-19T01:58:52;93670.44;;;15.26;48.45
6435;BME280;3250;42.694;23.278;2023-01-19T02:01:17;93660.66;;;15.17;48.65
6435;BME280;3250;42.694;23.278;2023-01-19T02:04:01;93666.47;;;15.24;49.13
6435;BME280;3250;42.694;23.278;2023-01-19T02:06:27;93704.91;;;15.26;48.73
6435;BME280;3250;42.694;23.278;2023-01-19T02:08:57;93672.00;;;15.37;48.01
6435;BME280;3250;42.694;23.278;2023-01-19T02:11:44;93656.13;;;15.27;48.30
6435;BME280;3250;42.694;23.278;2023-01-19T02:14:28;93649.50;;;15.30;48.17
6435;BME280;3250;42.694;23.278;2023-01-19T02:16:54;93644.44;;;15.33;47.58
6435;BME280;3250;42.694;23.278;2023-01-19T02:19:27;93658.50;;;15.29;47.84
6435;BME280;3250;42.694;23.278;2023-01-19T02:22:08;93655.31;;;15.32;47.79
6435;BME280;3250;42.694;23.278;2023-01-19T02:24:36;93650.28;;;15.30;48.15
6435;BME280;3250;42.694;23.278;2023-01-19T02:27:02;93608.41;;;15.22;48.31
6435;BME280;3250;42.694;23.278;2023-01-19T02:29:29;93615.00;;;15.35;47.73
6435;BME280;3250;42.694;23.278;2023-01-19T02:31:54;93625.63;;;15.25;47.48
6435;BME280;3250;42.694;23.278;2023-01-19T02:34:21;93640.75;;;15.24;46.92
6435;BME280;3250;42.694;23.278;2023-01-19T02:37:13;93651.91;;;15.21;47.59
6435;BME280;3250;42.694;23.278;2023-01-19T02:39:44;93645.00;;;15.20;47.67
6435;BME280;3250;42.694;23.278;2023-01-19T02:42:14;93661.97;;;15.24;48.01
6435;BME280;3250;42.694;23.278;2023-01-19T02:44:45;93572.88;;;15.23;47.46
6435;BME280;3250;42.694;23.278;2023-01-19T02:47:12;93659.59;;;15.18;47.96
6435;BME280;3250;42.694;23.278;2023-01-19T02:49:38;93664.09;;;15.17;47.65
6435;BME280;3250;42.694;23.278;2023-01-19T02:52:04;93648.97;;;15.23;47.98
6435;BME280;3250;42.694;23.278;2023-01-19T02:55:00;93643.44;;;15.19;47.03
6435;BME280;3250;42.694;23.278;2023-01-19T02:57:48;93646.06;;;15.24;46.68
6435;BME280;3250;42.694;23.278;2023-01-19T03:08:41;93644.75;;;15.22;47.28
6435;BME280;3250;42.694;23.278;2023-01-19T03:11:12;93652.47;;;15.13;46.75
6435;BME280;3250;42.694;23.278;2023-01-19T03:13:46;93646.34;;;15.18;47.35
6435;BME280;3250;42.694;23.278;2023-01-19T03:16:20;93657.72;;;15.23;47.26
6435;BME280;3250;42.694;23.278;2023-01-19T03:18:51;93659.59;;;15.18;47.19
6435;BME280;3250;42.694;23.278;2023-01-19T03:21:22;93651.41;;;15.04;47.69
6435;BME280;3250;42.694;23.278;2023-01-19T03:23:51;93615.06;;;15.15;47.63
6435;BME280;3250;42.694;23.278;2023-01-19T03:26:20;93648.22;;;15.12;47.47
6435;BME280;3250;42.694;23.278;2023-01-19T03:28:50;93656.16;;;15.17;47.37
6435;BME280;3250;42.694;23.278;2023-01-19T03:31:22;93706.78;;;15.10;47.27
6435;BME280;3250;42.694;23.278;2023-01-19T03:33:59;93652.97;;;15.15;46.92
6435;BME280;3250;42.694;23.278;2023-01-19T03:36:31;93659.06;;;15.16;47.81
6435;BME280;3250;42.694;23.278;2023-01-19T03:39:00;93667.84;;;15.11;47.88
6435;BME280;3250;42.694;23.278;2023-01-19T03:41:28;93619.59;;;15.09;47.84
6435;BME280;3250;42.694;23.278;2023-01-19T03:43:55;93654.56;;;15.11;47.57
6435;BME280;3250;42.694;23.278;2023-01-19T03:46:22;93651.91;;;15.16;47.36
6435;BME280;3250;42.694;23.278;2023-01-19T03:48:48;93661.72;;;15.16;47.49
6435;BME280;3250;42.694;23.278;2023-01-19T03:51:15;93671.78;;;15.14;47.39
6435;BME280;3250;42.694;23.278;2023-01-19T03:53:41;93640.75;;;15.14;47.10
6435;BME280;3250;42.694;23.278;2023-01-19T03:56:15;93658.53;;;15.08;47.73
6435;BME280;3250;42.694;23.278;2023-01-19T03:58:41;93642.13;;;15.06;47.52
6435;BME280;3250;42.694;23.278;2023-01-19T04:01:07;93638.72;;;14.96;47.38
6435;BME280;3250;42.694;23.278;2023-01-19T04:03:32;93654.88;;;15.04;47.51
6435;BME280;3250;42.694;23.278;2023-01-19T04:05:58;93692.47;;;15.06;47.37
6435;BME280;3250;42.694;23.278;2023-01-19T04:08:23;93654.06;;;14.99;47.10
6435;BME280;3250;42.694;23.278;2023-01-19T04:10:48;93657.22;;;15.06;46.79
6435;BME280;3250;42.694;23.278;2023-01-19T04:13:14;93662.25;;;14.97;46.48
6435;BME280;3250;42.694;23.278;2023-01-19T04:15:39;93644.78;;;15.01;46.22
6435;BME280;3250;42.694;23.278;2023-01-19T04:18:04;93656.97;;;15.02;46.57
6435;BME280;3250;42.694;23.278;2023-01-19T04:20:31;93654.31;;;15.07;46.39
6435;BME280;3250;42.694;23.278;2023-01-19T04:22:58;93646.34;;;15.07;45.79
6435;BME280;3250;42.694;23.278;2023-01-19T04:25:25;93628.88;;;15.12;45.73
6435;BME280;3250;42.694;23.278;2023-01-19T04:27:54;93629.63;;;15.22;44.99
6435;BME280;3250;42.694;23.278;2023-01-19T04:30:20;93612.13;;;15.16;45.72
6435;BME280;3250;42.694;23.278;2023-01-19T04:32:46;93630.97;;;15.09;45.21
6435;BME280;3250;42.694;23.278;2023-01-19T04:35:12;93637.31;;;15.19;44.79
6435;BME280;3250;42.694;23.278;2023-01-19T04:37:37;93643.94;;;15.26;44.60
6435;BME280;3250;42.694;23.278;2023-01-19T04:40:03;93612.88;;;15.32;44.15
6435;BME280;3250;42.694;23.278;2023-01-19T04:42:28;93643.41;;;15.29;44.65
6435;BME280;3250;42.694;23.278;2023-01-19T04:44:54;93659.03;;;15.26;44.99
6435;BME280;3250;42.694;23.278;2023-01-19T04:47:19;93627.22;;;15.26;44.83
6435;BME280;3250;42.694;23.278;2023-01-19T04:49:44;93661.97;;;15.29;44.37
6435;BME280;3250;42.694;23.278;2023-01-19T04:52:10;93667.25;;;15.34;44.27
6435;BME280;3250;42.694;23.278;2023-01-19T04:54:35;93656.09;;;15.37;44.37
6435;BME280;3250;42.694;23.278;2023-01-19T04:57:01;93667.50;;;15.38;44.85
6435;BME280;3250;42.694;23.278;2023-01-19T04:59:26;93667.22;;;15.39;44.48
6435;BME280;3250;42.694;23.278;2023-01-19T05:01:51;93677.03;;;15.44;44.55
6435;BME280;3250;42.694;23.278;2023-01-19T05:04:17;93681.81;;;15.47;44.19
6435;BME280;3250;42.694;23.278;2023-01-19T05:06:42;93679.91;;;15.53;44.63
6435;BME280;3250;42.694;23.278;2023-01-19T05:09:08;93705.41;;;15.43;44.66
6435;BME280;3250;42.694;23.278;2023-01-19T05:11:37;93688.69;;;15.43;44.51
6435;BME280;3250;42.694;23.278;2023-01-19T05:14:02;93707.00;;;15.44;43.97
6435;BME280;3250;42.694;23.278;2023-01-19T05:16:28;93729.03;;;15.55;43.92
6435;BME280;3250;42.694;23.278;2023-01-19T05:18:53;93711.75;;;15.53;43.96
6435;BME280;3250;42.694;23.278;2023-01-19T05:21:18;93699.28;;;15.48;44.04
6435;BME280;3250;42.694;23.278;2023-01-19T05:23:44;93704.59;;;15.53;44.50
6435;BME280;3250;42.694;23.278;2023-01-19T05:26:10;93712.81;;;15.52;44.02
6435;BME280;3250;42.694;23.278;2023-01-19T05:28:36;93709.09;;;15.58;44.52
6435;BME280;3250;42.694;23.278;2023-01-19T05:31:02;93700.63;;;15.40;44.28
6435;BME280;3250;42.694;23.278;2023-01-19T05:33:27;93708.88;;;15.39;44.38
6435;BME280;3250;42.694;23.278;2023-01-19T05:35:53;93711.00;;;15.37;44.47
6435;BME280;3250;42.694;23.278;2023-01-19T05:38:20;93702.50;;;15.40;44.34
6435;BME280;3250;42.694;23.278;2023-01-19T05:40:46;93689.50;;;15.43;43.98
6435;BME280;3250;42.694;23.278;2023-01-19T05:43:13;93692.16;;;15.43;43.83
6435;BME280;3250;42.694;23.278;2023-01-19T05:45:38;93716.00;;;15.48;43.55
6435;BME280;3250;42.694;23.278;2023-01-19T05:48:08;93740.16;;;15.47;43.63
6435;BME280;3250;42.694;23.278;2023-01-19T05:50:34;93692.66;;;15.51;43.80
6435;BME280;3250;42.694;23.278;2023-01-19T05:53:00;93729.00;;;15.50;44.00
6435;BME280;3250;42.694;23.278;2023-01-19T05:55:26;93701.16;;;15.42;43.80
6435;BME280;3250;42.694;23.278;2023-01-19T05:57:52;93717.84;;;15.48;43.94
6435;BME280;3250;42.694;23.278;2023-01-19T06:00:18;93719.19;;;15.40;43.94
6435;BME280;3250;42.694;23.278;2023-01-19T06:02:43;93718.41;;;15.45;43.71
6435;BME280;3250;42.694;23.278;2023-01-19T06:05:10;93708.34;;;15.32;43.90
6435;BME280;3250;42.694;23.278;2023-01-19T06:07:36;93720.53;;;15.38;44.14
6435;BME280;3250;42.694;23.278;2023-01-19T06:10:01;93699.84;;;15.45;43.62
6435;BME280;3250;42.694;23.278;2023-01-19T06:12:26;93745.47;;;15.47;43.72
6435;BME280;3250;42.694;23.278;2023-01-19T06:14:52;93691.09;;;15.39;43.91
6435;BME280;3250;42.694;23.278;2023-01-19T06:17:18;93697.72;;;15.42;43.57
6435;BME280;3250;42.694;23.278;2023-01-19T06:19:44;93697.97;;;15.51;43.75
6435;BME280;3250;42.694;23.278;2023-01-19T06:22:10;93697.44;;;15.48;43.41
6435;BME280;3250;42.694;23.278;2023-01-19T06:24:35;93681.28;;;15.55;43.82
6435;BME280;3250;42.694;23.278;2023-01-19T06:27:00;93680.72;;;15.63;43.29
6435;BME280;3250;42.694;23.278;2023-01-19T06:29:26;93705.91;;;15.61;43.61
6435;BME280;3250;42.694;23.278;2023-01-19T06:31:52;93705.66;;;15.62;43.59
6435;BME280;3250;42.694;23.278;2023-01-19T06:34:17;93694.25;;;15.62;43.31
6435;BME280;3250;42.694;23.278;2023-01-19T06:36:44;93709.09;;;15.63;43.50
6435;BME280;3250;42.694;23.278;2023-01-19T06:39:09;93721.81;;;15.71;43.41
6435;BME280;3250;42.694;23.278;2023-01-19T06:41:35;93682.00;;;15.81;43.11
6435;BME280;3250;42.694;23.278;2023-01-19T06:44:01;93714.28;;;15.93;43.02
6435;BME280;3250;42.694;23.278;2023-01-19T06:46:27;93741.06;;;16.02;43.03
6435;BME280;3250;42.694;23.278;2023-01-19T06:48:53;93737.34;;;16.08;42.42
6435;BME280;3250;42.694;23.278;2023-01-19T06:51:20;93747.63;;;16.19;41.98
6435;BME280;3250;42.694;23.278;2023-01-19T06:53:45;93755.88;;;16.18;41.99
6435;BME280;3250;42.694;23.278;2023-01-19T06:56:11;93723.66;;;16.35;41.44
6435;BME280;3250;42.694;23.278;2023-01-19T06:58:36;93734.31;;;16.30;41.54
6435;BME280;3250;42.694;23.278;2023-01-19T07:01:05;93761.06;;;16.48;41.39
6435;BME280;3250;42.694;23.278;2023-01-19T07:03:32;93767.16;;;16.44;41.28
6435;BME280;3250;42.694;23.278;2023-01-19T07:05:57;93765.78;;;16.62;41.39
6435;BME280;3250;42.694;23.278;2023-01-19T07:08:27;93744.88;;;16.89;40.09
6435;BME280;3250;42.694;23.278;2023-01-19T07:10:58;93741.59;;;17.02;39.94
6435;BME280;3250;42.694;23.278;2023-01-19T07:13:23;93747.13;;;17.11;39.85
6435;BME280;3250;42.694;23.278;2023-01-19T07:15:48;93723.38;;;17.19;39.89
6435;BME280;3250;42.694;23.278;2023-01-19T07:18:14;93736.00;;;17.32;38.96
6435;BME280;3250;42.694;23.278;2023-01-19T07:20:39;93731.16;;;17.40;38.80
6435;BME280;3250;42.694;23.278;2023-01-19T07:23:05;93748.44;;;17.42;38.73
6435;BME280;3250;42.694;23.278;2023-01-19T07:25:30;93763.75;;;17.55;38.44
6435;BME280;3250;42.694;23.278;2023-01-19T07:27:59;93728.78;;;17.67;38.33
6435;BME280;3250;42.694;23.278;2023-01-19T07:30:25;93745.09;;;18.08;37.00
6435;BME280;3250;42.694;23.278;2023-01-19T07:32:54;93734.00;;;18.01;37.47
6435;BME280;3250;42.694;23.278;2023-01-19T07:35:20;93758.03;;;18.20;37.21
6435;BME280;3250;42.694;23.278;2023-01-19T07:37:46;93759.34;;;18.65;35.69
6435;BME280;3250;42.694;23.278;2023-01-19T07:40:11;93739.94;;;19.15;34.38
6435;BME280;3250;42.694;23.278;2023-01-19T07:42:37;93733.88;;;19.42;33.58
6435;BME280;3250;42.694;23.278;2023-01-19T07:45:03;93716.84;;;19.38;33.31
6435;BME280;3250;42.694;23.278;2023-01-19T07:47:28;93719.78;;;19.23;33.33
6435;BME280;3250;42.694;23.278;2023-01-19T07:49:54;93760.88;;;19.41;33.12
6435;BME280;3250;42.694;23.278;2023-01-19T07:52:19;93764.72;;;19.81;32.13
6435;BME280;3250;42.694;23.278;2023-01-19T07:54:47;93769.22;;;20.13;31.14
6435;BME280;3250;42.694;23.278;2023-01-19T07:57:15;93746.66;;;20.19;31.03
6435;BME280;3250;42.694;23.278;2023-01-19T07:59:41;93758.72;;;20.30;30.60
6435;BME280;3250;42.694;23.278;2023-01-19T08:02:08;93766.88;;;20.39;30.47
6435;BME280;3250;42.694;23.278;2023-01-19T08:04:34;93754.09;;;20.22;30.93
6435;BME280;3250;42.694;23.278;2023-01-19T08:06:59;93766.94;;;20.33;30.16
6435;BME280;3250;42.694;23.278;2023-01-19T08:09:25;93765.00;;;20.39;30.33
6435;BME280;3250;42.694;23.278;2023-01-19T08:11:50;93790.75;;;20.49;30.20
6435;BME280;3250;42.694;23.278;2023-01-19T08:14:15;93761.22;;;20.13;30.51
6435;BME280;3250;42.694;23.278;2023-01-19T08:16:42;93784.16;;;20.27;30.38
6435;BME280;3250;42.694;23.278;2023-01-19T08:19:08;93742.50;;;19.85;30.84
6435;BME280;3250;42.694;23.278;2023-01-19T08:21:33;93785.13;;;19.77;30.71
6435;BME280;3250;42.694;23.278;2023-01-19T08:24:00;93773.34;;;19.45;31.28
6435;BME280;3250;42.694;23.278;2023-01-19T08:26:31;93781.31;;;19.64;30.94
6435;BME280;3250;42.694;23.278;2023-01-19T08:28:59;93767.72;;;19.79;30.92
6435;BME280;3250;42.694;23.278;2023-01-19T08:31:25;93786.47;;;19.61;30.89
6435;BME280;3250;42.694;23.278;2023-01-19T08:33:51;93784.53;;;19.80;31.19
6435;BME280;3250;42.694;23.278;2023-01-19T08:36:17;93769.84;;;19.64;30.95
6435;BME280;3250;42.694;23.278;2023-01-19T08:38:44;93772.19;;;19.51;32.07
6435;BME280;3250;42.694;23.278;2023-01-19T08:41:10;93786.19;;;19.43;31.34
6435;BME280;3250;42.694;23.278;2023-01-19T08:43:36;93769.56;;;19.14;31.60
6435;BME280;3250;42.694;23.278;2023-01-19T08:46:02;93780.69;;;19.02;32.03
6435;BME280;3250;42.694;23.278;2023-01-19T08:48:28;93789.78;;;19.01;32.45
6435;BME280;3250;42.694;23.278;2023-01-19T08:50:53;93814.56;;;19.02;32.62
6435;BME280;3250;42.694;23.278;2023-01-19T08:53:19;93805.53;;;18.79;32.48
6435;BME280;3250;42.694;23.278;2023-01-19T08:55:46;93821.50;;;18.84;33.19
6435;BME280;3250;42.694;23.278;2023-01-19T08:58:12;93816.22;;;18.79;33.21
6435;BME280;3250;42.694;23.278;2023-01-19T09:00:38;93803.91;;;18.83;33.13
6435;BME280;3250;42.694;23.278;2023-01-19T09:03:08;93793.06;;;19.12;33.06
6435;BME280;3250;42.694;23.278;2023-01-19T09:05:36;93828.81;;;19.30;32.91
6435;BME280;3250;42.694;23.278;2023-01-19T09:08:04;93815.09;;;19.55;32.47
6435;BME280;3250;42.694;23.278;2023-01-19T09:10:30;93805.94;;;19.42;32.86
6435;BME280;3250;42.694;23.278;2023-01-19T09:13:07;93836.81;;;19.30;33.10
6435;BME280;3250;42.694;23.278;2023-01-19T09:15:35;93824.78;;;19.13;33.11
6435;BME280;3250;42.694;23.278;2023-01-19T09:18:07;93806.91;;;18.95;33.04
6435;BME280;3250;42.694;23.278;2023-01-19T09:20:34;93833.69;;;19.09;32.74
6435;BME280;3250;42.694;23.278;2023-01-19T09:23:02;93844.31;;;18.71;32.69
6435;BME280;3250;42.694;23.278;2023-01-19T09:25:28;93812.97;;;18.82;33.04
6435;BME280;3250;42.694;23.278;2023-01-19T09:27:53;93810.22;;;19.06;33.58
6435;BME280;3250;42.694;23.278;2023-01-19T09:30:20;93832.09;;;19.08;34.04
6435;BME280;3250;42.694;23.278;2023-01-19T09:32:46;93846.41;;;19.12;33.52
6435;BME280;3250;42.694;23.278;2023-01-19T09:35:11;93796.97;;;19.19;32.25
6435;BME280;3250;42.694;23.278;2023-01-19T09:37:37;93788.66;;;19.21;33.00
6435;BME280;3250;42.694;23.278;2023-01-19T09:40:04;93809.44;;;19.24;33.21
6435;BME280;3250;42.694;23.278;2023-01-19T09:42:40;93815.84;;;19.23;33.18
6435;BME280;3250;42.694;23.278;2023-01-19T09:45:14;93801.97;;;19.40;32.98
6435;BME280;3250;42.694;23.278;2023-01-19T09:47:41;93789.31;;;19.50;33.11
6435;BME280;3250;42.694;23.278;2023-01-19T09:50:16;93795.66;;;19.54;33.46
6435;BME280;3250;42.694;23.278;2023-01-19T09:52:48;93791.72;;;19.47;32.99
6435;BME280;3250;42.694;23.278;2023-01-19T09:55:24;93787.44;;;19.51;32.59
6435;BME280;3250;42.694;23.278;2023-01-19T09:57:51;93794.56;;;19.37;32.58
6435;BME280;3250;42.694;23.278;2023-01-19T10:00:17;93801.19;;;19.20;32.41
6435;BME280;3250;42.694;23.278;2023-01-19T10:02:54;93778.59;;;19.18;33.09
6435;BME280;3250;42.694;23.278;2023-01-19T10:08:24;93789.47;;;19.03;34.04
6435;BME280;3250;42.694;23.278;2023-01-19T10:10:55;93788.88;;;19.25;33.13
6435;BME280;3250;42.694;23.278;2023-01-19T10:21:38;93767.91;;;19.18;33.76
6435;BME280;3250;42.694;23.278;2023-01-19T10:24:14;93763.84;;;19.20;34.86
6435;BME280;3250;42.694;23.278;2023-01-19T10:26:52;93765.84;;;19.29;34.09
6435;BME280;3250;42.694;23.278;2023-01-19T10:29:28;93771.28;;;19.05;33.80
6435;BME280;3250;42.694;23.278;2023-01-19T10:32:10;93772.88;;;18.87;33.43
6435;BME280;3250;42.694;23.278;2023-01-19T10:34:37;93781.63;;;18.74;33.84
6435;BME280;3250;42.694;23.278;2023-01-19T10:37:33;93758.22;;;18.47;33.96
6435;BME280;3250;42.694;23.278;2023-01-19T10:42:37;93816.97;;;18.61;33.92
6435;BME280;3250;42.694;23.278;2023-01-19T10:45:20;93772.03;;;18.30;33.78
6435;BME280;3250;42.694;23.278;2023-01-19T10:47:47;93783.63;;;18.39;34.46
6435;BME280;3250;42.694;23.278;2023-01-19T10:52:52;93754.63;;;18.14;34.79
6435;BME280;3250;42.694;23.278;2023-01-19T10:55:28;93771.94;;;18.35;34.82
6435;BME280;3250;42.694;23.278;2023-01-19T10:57:55;93785.22;;;18.40;34.55
6435;BME280;3250;42.694;23.278;2023-01-19T11:00:40;93756.34;;;18.05;34.55
6435;BME280;3250;42.694;23.278;2023-01-19T11:03:29;93770.84;;;17.94;34.83
6435;BME280;3250;42.694;23.278;2023-01-19T11:08:40;93783.78;;;17.77;36.08
6435;BME280;3250;42.694;23.278;2023-01-19T11:11:06;93753.16;;;17.79;36.19
6435;BME280;3250;42.694;23.278;2023-01-19T11:13:34;93742.84;;;17.73;35.77
6435;BME280;3250;42.694;23.278;2023-01-19T11:16:26;93746.06;;;17.69;35.58
6435;BME280;3250;42.694;23.278;2023-01-19T11:18:55;93759.13;;;17.66;35.67
6435;BME280;3250;42.694;23.278;2023-01-19T11:21:27;93756.78;;;17.59;35.93
6435;BME280;3250;42.694;23.278;2023-01-19T11:23:58;93738.31;;;17.44;35.30
6435;BME280;3250;42.694;23.278;2023-01-19T11:28:56;93705.69;;;17.62;35.89
6435;BME280;3250;42.694;23.278;2023-01-19T11:33:59;93736.84;;;17.86;35.73
6435;BME280;3250;42.694;23.278;2023-01-19T11:36:30;93735.94;;;17.95;35.39
6435;BME280;3250;42.694;23.278;2023-01-19T11:38:58;93723.03;;;17.84;34.81
6435;BME280;3250;42.694;23.278;2023-01-19T11:41:33;93766.94;;;17.86;35.77
6435;BME280;3250;42.694;23.278;2023-01-19T11:46:37;93722.91;;;17.70;35.76
6435;BME280;3250;42.694;23.278;2023-01-19T11:49:12;93706.34;;;17.73;34.71
6435;BME280;3250;42.694;23.278;2023-01-19T11:52:33;93729.38;;;17.64;35.87
6435;BME280;3250;42.694;23.278;2023-01-19T11:54:35;93748.22;;;17.67;34.84
6435;BME280;3250;42.694;23.278;2023-01-19T11:57:11;93718.91;;;17.73;34.94
6435;BME280;3250;42.694;23.278;2023-01-19T11:59:38;93719.72;;;17.92;35.51
6435;BME280;3250;42.694;23.278;2023-01-19T12:02:15;93736.50;;;17.92;35.29
6435;BME280;3250;42.694;23.278;2023-01-19T12:04:42;93719.16;;;17.95;35.33
6435;BME280;3250;42.694;23.278;2023-01-19T12:07:10;93723.63;;;17.99;34.77
6435;BME280;3250;42.694;23.278;2023-01-19T12:09:39;93722.56;;;18.00;34.41
6435;BME280;3250;42.694;23.278;2023-01-19T12:17:35;93706.91;;;18.36;33.61
6435;BME280;3250;42.694;23.278;2023-01-19T12:20:06;93719.44;;;18.36;33.63
6435;BME280;3250;42.694;23.278;2023-01-19T12:22:44;93679.13;;;18.24;33.60
6435;BME280;3250;42.694;23.278;2023-01-19T12:25:22;93707.97;;;18.17;33.61
6435;BME280;3250;42.694;23.278;2023-01-19T12:27:50;93704.03;;;18.14;34.08
6435;BME280;3250;42.694;23.278;2023-01-19T12:30:21;93708.31;;;18.10;33.94
6435;BME280;3250;42.694;23.278;2023-01-19T12:32:48;93716.16;;;18.01;34.07
6435;BME280;3250;42.694;23.278;2023-01-19T12:41:35;93709.22;;;18.24;34.47
6435;BME280;3250;42.694;23.278;2023-01-19T12:46:44;93717.78;;;18.21;33.52
6435;BME280;3250;42.694;23.278;2023-01-19T12:49:20;93719.91;;;18.00;33.32
6435;BME280;3250;42.694;23.278;2023-01-19T12:51:47;93726.19;;;17.86;33.98
6435;BME280;3250;42.694;23.278;2023-01-19T12:54:30;93707.84;;;17.84;33.80
6435;BME280;3250;42.694;23.278;2023-01-19T12:57:26;93732.88;;;17.83;33.96
6435;BME280;3250;42.694;23.278;2023-01-19T13:00:03;93708.19;;;17.78;34.60
6435;BME280;3250;42.694;23.278;2023-01-19T13:02:35;93694.31;;;17.81;34.27
6435;BME280;3250;42.694;23.278;2023-01-19T13:24:06;93714.00;;;17.27;35.29
6435;BME280;3250;42.694;23.278;2023-01-19T13:29:16;93692.72;;;17.27;35.56
6435;BME280;3250;42.694;23.278;2023-01-19T13:31:45;93701.03;;;17.20;35.87
6435;BME280;3250;42.694;23.278;2023-01-19T13:34:25;93686.34;;;17.23;35.54
6435;BME280;3250;42.694;23.278;2023-01-19T13:36:53;93687.84;;;17.34;35.72
6435;BME280;3250;42.694;23.278;2023-01-19T13:39:26;93676.94;;;17.35;35.01
6435;BME280;3250;42.694;23.278;2023-01-19T13:41:54;93671.50;;;17.46;34.79
6435;BME280;3250;42.694;23.278;2023-01-19T13:44:23;93677.03;;;17.49;35.04
6435;BME280;3250;42.694;23.278;2023-01-19T13:46:50;93689.81;;;17.52;34.79
6435;BME280;3250;42.694;23.278;2023-01-19T13:49:34;93675.19;;;17.50;34.85
6435;BME280;3250;42.694;23.278;2023-01-19T13:52:05;93669.66;;;17.46;35.45
6435;BME280;3250;42.694;23.278;2023-01-19T13:54:31;93681.25;;;17.55;34.68
6435;BME280;3250;42.694;23.278;2023-01-19T13:56:56;93678.53;;;17.60;34.45
6435;BME280;3250;42.694;23.278;2023-01-19T13:59:22;93686.34;;;17.52;34.79
6435;BME280;3250;42.694;23.278;2023-01-19T14:01:47;93677.22;;;17.58;35.12
6435;BME280;3250;42.694;23.278;2023-01-19T14:04:32;93693.81;;;17.50;34.93
6435;BME280;3250;42.694;23.278;2023-01-19T14:07:01;93670.53;;;17.37;34.78
6435;BME280;3250;42.694;23.278;2023-01-19T14:09:28;93683.25;;;17.40;35.01
6435;BME280;3250;42.694;23.278;2023-01-19T14:12:10;93686.50;;;17.37;35.07
6435;BME280;3250;42.694;23.278;2023-01-19T14:14:36;93687.41;;;17.27;35.49
6435;BME280;3250;42.694;23.278;2023-01-19T14:17:05;93669.66;;;17.17;35.47
6435;BME280;3250;42.694;23.278;2023-01-19T14:19:53;93685.91;;;17.16;35.54
6435;BME280;3250;42.694;23.278;2023-01-19T14:22:19;93683.75;;;17.18;36.01
6435;BME280;3250;42.694;23.278;2023-01-19T14:24:44;93689.91;;;17.13;35.58
6435;BME280;3250;42.694;23.278;2023-01-19T14:27:20;93691.53;;;17.09;35.91
6435;BME280;3250;42.694;23.278;2023-01-19T14:29:47;93700.13;;;17.01;35.94
6435;BME280;3250;42.694;23.278;2023-01-19T14:32:23;93704.41;;;16.97;36.59